Time;durP1;ratioP1;P1;durP2;ratioP2;P2;SDS_P1;SDS_P2;PMS_P1;PMS_P2;Temp;Humidity;BMP_temperature;BMP_pressure;BME280_temperature;BME280_humidity;BME280_pressure;Samples;Min_cycle;Max_cycle;Signal;HPM_P1;HPM_P2
2024/01/19 00:00:45;;;;;;;20.67;14.40;;;;;;;-0.58;100.00;96068.22;4977621;28;20524;-70
2024/01/19 00:03:10;;;;;;;26.63;14.45;;;;;;;-0.62;100.00;96068.06;4974509;28;20041;-67
2024/01/19 00:05:36;;;;;;;23.27;13.65;;;;;;;-0.67;100.00;96081.63;4979424;28;20806;-69
2024/01/19 00:08:02;;;;;;;24.60;13.85;;;;;;;-0.60;100.00;96070.44;4978230;28;20237;-68
2024/01/19 00:10:27;;;;;;;23.60;14.07;;;;;;;-0.64;100.00;96088.31;4975730;28;20069;-68
2024/01/19 00:12:52;;;;;;;21.85;13.18;;;;;;;-0.66;100.00;96088.59;4979308;28;20040;-70
2024/01/19 00:15:18;;;;;;;26.75;15.23;;;;;;;-0.66;100.00;96090.50;4973734;28;20723;-70
2024/01/19 00:17:43;;;;;;;26.77;14.73;;;;;;;-0.69;100.00;96091.91;4979136;28;20569;-69
2024/01/19 00:20:09;;;;;;;29.70;15.05;;;;;;;-0.74;100.00;96102.78;4974449;28;20572;-70
2024/01/19 00:22:35;;;;;;;24.30;13.73;;;;;;;-0.85;100.00;96104.94;4979876;28;20042;-70
2024/01/19 00:25:02;;;;;;;24.75;14.18;;;;;;;-0.84;100.00;96114.59;4978732;28;20445;-70
2024/01/19 00:27:29;;;;;;;23.58;13.70;;;;;;;-0.82;100.00;96120.47;4979484;28;20050;-71
2024/01/19 00:29:55;;;;;;;25.70;14.23;;;;;;;-0.81;100.00;96116.69;4984159;28;20385;-70
2024/01/19 00:32:20;;;;;;;23.50;14.77;;;;;;;-0.80;100.00;96122.84;4997531;28;20030;-69
2024/01/19 00:34:46;;;;;;;25.17;15.13;;;;;;;-0.84;100.00;96116.50;4981668;28;20131;-69
2024/01/19 00:37:11;;;;;;;21.40;13.98;;;;;;;-0.96;100.00;96125.91;4976077;28;20130;-69
2024/01/19 00:39:36;;;;;;;26.30;15.30;;;;;;;-1.13;100.00;96135.75;4981450;28;20077;-69
2024/01/19 00:42:02;;;;;;;25.38;13.77;;;;;;;-0.90;100.00;96128.47;4977116;28;20066;-68
2024/01/19 00:44:28;;;;;;;24.23;14.55;;;;;;;-0.93;100.00;96146.03;4978125;28;20038;-68
2024/01/19 00:46:54;;;;;;;24.92;14.27;;;;;;;-0.92;100.00;96149.50;4982209;28;20034;-69
2024/01/19 00:49:19;;;;;;;32.65;14.77;;;;;;;-0.81;100.00;96146.28;4977611;28;20050;-68
2024/01/19 00:51:45;;;;;;;25.10;13.50;;;;;;;-0.87;100.00;96147.47;4982105;28;20043;-70
2024/01/19 00:54:10;;;;;;;24.05;14.00;;;;;;;-0.94;100.00;96165.16;4974050;28;20054;-69
2024/01/19 00:56:35;;;;;;;26.60;12.73;;;;;;;-0.93;100.00;96175.59;4981601;28;20045;-69
2024/01/19 00:59:01;;;;;;;23.70;13.02;;;;;;;-0.87;100.00;96170.88;4983677;28;20516;-71
2024/01/19 01:01:26;;;;;;;24.63;13.23;;;;;;;-0.82;100.00;96171.56;4983163;28;20053;-68
2024/01/19 01:03:52;;;;;;;22.45;12.60;;;;;;;-0.99;100.00;96179.50;5000192;28;20150;-69
2024/01/19 01:06:17;;;;;;;22.48;13.25;;;;;;;-1.01;100.00;96179.81;4977975;28;20049;-70
2024/01/19 01:08:42;;;;;;;21.20;12.40;;;;;;;-0.96;100.00;96185.06;4982348;28;20120;-69
2024/01/19 01:11:08;;;;;;;25.02;12.20;;;;;;;-0.90;100.00;96183.06;4975915;28;20093;-70
2024/01/19 01:13:34;;;;;;;24.38;12.55;;;;;;;-0.95;100.00;96191.25;4981756;28;20046;-69
2024/01/19 01:15:59;;;;;;;21.70;11.68;;;;;;;-1.09;100.00;96202.03;4974602;28;20034;-69
2024/01/19 01:18:25;;;;;;;21.50;11.95;;;;;;;-1.11;100.00;96201.53;4969156;28;20574;-69
2024/01/19 01:20:50;;;;;;;25.05;12.43;;;;;;;-1.07;100.00;96204.41;4982239;28;20081;-69
2024/01/19 01:23:16;;;;;;;22.25;11.77;;;;;;;-1.16;100.00;96215.09;4977519;28;20558;-69
2024/01/19 01:25:41;;;;;;;23.10;12.20;;;;;;;-1.15;100.00;96219.38;4981671;28;20126;-69
2024/01/19 01:28:07;;;;;;;22.90;12.75;;;;;;;-1.01;100.00;96230.91;4978680;28;20038;-69
2024/01/19 01:30:32;;;;;;;21.67;12.40;;;;;;;-1.11;100.00;96233.78;4983626;28;20454;-70
2024/01/19 01:32:57;;;;;;;21.65;11.68;;;;;;;-1.32;100.00;96243.41;5002582;28;20033;-70
2024/01/19 01:35:23;;;;;;;22.10;12.30;;;;;;;-1.21;100.00;96248.22;4976023;28;20520;-69
2024/01/19 01:37:48;;;;;;;20.92;11.98;;;;;;;-1.14;100.00;96252.41;4979691;28;20054;-70
2024/01/19 01:40:14;;;;;;;24.02;12.00;;;;;;;-1.06;100.00;96251.69;4970273;28;20038;-70
2024/01/19 01:42:39;;;;;;;21.13;12.38;;;;;;;-1.06;100.00;96251.69;4981515;28;20518;-70
2024/01/19 01:45:05;;;;;;;20.40;11.52;;;;;;;-1.06;100.00;96265.13;4977481;28;20501;-69
2024/01/19 01:47:31;;;;;;;18.33;12.10;;;;;;;-1.06;100.00;96259.75;4981748;28;20558;-70
2024/01/19 01:49:57;;;;;;;18.23;12.50;;;;;;;-1.04;100.00;96258.38;4980800;28;20102;-69
2024/01/19 01:52:23;;;;;;;18.95;11.52;;;;;;;-1.17;100.00;96264.56;4977251;28;20591;-70
2024/01/19 01:54:51;;;;;;;20.05;10.70;;;;;;;-1.23;100.00;96263.88;4980598;28;20050;-70
2024/01/19 01:57:20;;;;;;;23.35;12.43;;;;;;;-1.24;100.00;96267.66;4976323;28;20030;-69
2024/01/19 01:59:47;;;;;;;20.58;11.02;;;;;;;-1.36;100.00;96278.13;4983157;28;20515;-70
2024/01/19 02:02:13;;;;;;;20.73;12.20;;;;;;;-1.54;100.00;96274.44;4977436;28;20097;-69
2024/01/19 02:04:39;;;;;;;23.80;12.38;;;;;;;-1.47;100.00;96282.13;4980486;28;20628;-69
2024/01/19 02:07:05;;;;;;;22.02;13.15;;;;;;;-1.51;100.00;96281.09;4976749;28;20038;-69
2024/01/19 02:09:30;;;;;;;23.35;12.35;;;;;;;-1.58;100.00;96292.25;4981056;28;20045;-69
2024/01/19 02:11:57;;;;;;;23.40;12.85;;;;;;;-1.56;100.00;96288.19;4980953;28;20041;-70
2024/01/19 02:14:22;;;;;;;27.45;12.50;;;;;;;-1.57;100.00;96285.78;4975959;28;20054;-70
2024/01/19 02:16:48;;;;;;;19.67;10.63;;;;;;;-1.41;100.00;96297.03;4980336;28;20068;-69
2024/01/19 02:19:13;;;;;;;27.98;14.25;;;;;;;-1.40;100.00;96296.72;4975366;28;20050;-70
2024/01/19 02:21:39;;;;;;;23.70;11.65;;;;;;;-1.38;100.00;96291.06;4980472;28;20162;-69
2024/01/19 02:24:13;;;;;;;22.25;11.68;;;;;;;-1.48;100.00;96299.31;4975676;28;20045;-69
2024/01/19 02:26:39;;;;;;;21.10;12.27;;;;;;;-1.33;100.00;96299.03;4981313;28;20104;-69
2024/01/19 02:29:04;;;;;;;16.42;10.43;;;;;;;-1.38;100.00;96304.50;4977331;28;20066;-69
2024/01/19 02:31:30;;;;;;;20.50;11.00;;;;;;;-1.33;100.00;96304.41;4980662;28;20046;-69
2024/01/19 02:33:57;;;;;;;19.13;11.98;;;;;;;-1.41;100.00;96310.47;4978510;28;20054;-68
2024/01/19 02:36:22;;;;;;;21.80;12.30;;;;;;;-1.51;100.00;96311.47;4977168;28;20137;-68
2024/01/19 02:38:48;;;;;;;22.08;12.35;;;;;;;-1.41;100.00;96313.16;4979023;28;20627;-68
2024/01/19 02:41:13;;;;;;;19.13;11.05;;;;;;;-1.42;100.00;96308.88;4976019;28;20133;-67
2024/01/19 02:43:38;;;;;;;20.05;10.68;;;;;;;-1.33;100.00;96315.16;4979923;28;20092;-67
2024/01/19 02:46:04;;;;;;;21.10;10.77;;;;;;;-1.24;100.00;96318.72;4974645;28;20094;-66
2024/01/19 02:48:30;;;;;;;21.08;10.90;;;;;;;-1.15;100.00;96318.81;4989577;28;20050;-68
2024/01/19 02:50:55;;;;;;;19.08;9.93;;;;;;;-1.11;100.00;96327.09;4982285;28;20223;-68
2024/01/19 02:53:20;;;;;;;17.15;10.18;;;;;;;-1.28;100.00;96316.91;4975187;28;21679;-68
2024/01/19 02:55:46;;;;;;;19.90;10.90;;;;;;;-1.36;100.00;96326.47;4979780;28;20074;-68
2024/01/19 02:58:12;;;;;;;18.25;10.93;;;;;;;-1.47;100.00;96331.25;4976257;28;20046;-68
2024/01/19 03:00:37;;;;;;;18.65;10.77;;;;;;;-1.48;100.00;96332.34;4980350;28;20373;-67
2024/01/19 03:03:02;;;;;;;23.80;11.85;;;;;;;-1.56;100.00;96335.72;4979933;28;20041;-66
2024/01/19 03:05:28;;;;;;;19.70;11.20;;;;;;;-1.57;100.00;96342.19;4977381;28;20559;-68
2024/01/19 03:07:53;;;;;;;22.45;11.20;;;;;;;-1.55;100.00;96343.50;4979895;28;20069;-67
2024/01/19 03:10:18;;;;;;;19.65;11.70;;;;;;;-1.52;100.00;96358.22;4974961;28;20049;-67
2024/01/19 03:12:44;;;;;;;21.30;12.30;;;;;;;-1.60;100.00;96359.69;4979710;28;20042;-67
2024/01/19 03:15:09;;;;;;;20.58;11.98;;;;;;;-1.74;100.00;96372.31;4974754;28;20038;-67
2024/01/19 03:17:35;;;;;;;22.08;12.38;;;;;;;-1.79;100.00;96373.19;4980778;28;20108;-68
2024/01/19 03:20:00;;;;;;;24.50;13.10;;;;;;;-1.82;100.00;96375.66;4982017;28;20081;-67
2024/01/19 03:22:29;;;;;;;23.90;12.75;;;;;;;-1.85;100.00;96369.00;4975221;28;20421;-67
2024/01/19 03:24:54;;;;;;;24.58;12.52;;;;;;;-1.97;100.00;96369.44;4979749;28;20548;-67
2024/01/19 03:27:20;;;;;;;22.65;12.50;;;;;;;-2.07;100.00;96379.53;4974494;28;20062;-67
2024/01/19 03:29:47;;;;;;;24.30;13.55;;;;;;;-2.16;100.00;96376.72;4979667;28;20053;-68
2024/01/19 03:32:13;;;;;;;22.55;12.77;;;;;;;-2.21;100.00;96374.94;4982181;28;20034;-66
2024/01/19 03:34:40;;;;;;;20.50;12.60;;;;;;;-2.14;100.00;96377.25;4995917;28;20053;-67
2024/01/19 03:37:05;;;;;;;20.98;11.45;;;;;;;-2.10;100.00;96382.84;4975811;28;20051;-69
2024/01/19 03:39:32;;;;;;;23.45;13.52;;;;;;;-2.13;100.00;96379.63;4980055;28;20050;-68
2024/01/19 03:41:57;;;;;;;21.92;12.07;;;;;;;-2.32;100.00;96386.91;4979345;28;20085;-69
2024/01/19 03:44:23;;;;;;;23.98;12.75;;;;;;;-2.45;100.00;96384.94;4974753;28;20097;-69
2024/01/19 03:46:49;;;;;;;28.08;13.15;;;;;;;-2.64;100.00;96393.00;4978981;28;20054;-70
2024/01/19 03:49:15;;;;;;;26.17;14.00;;;;;;;-2.92;100.00;96387.44;4970880;28;20042;-69
2024/01/19 03:52:06;;;;;;;29.83;13.95;;;;;;;-3.08;100.00;96393.00;4979278;28;20050;-68
2024/01/19 03:54:32;;;;;;;33.33;16.70;;;;;;;-3.13;100.00;96394.97;4979119;28;20049;-69
2024/01/19 03:57:00;;;;;;;41.95;19.08;;;;;;;-3.20;100.00;96395.28;4980443;28;20042;-69
2024/01/19 03:59:25;;;;;;;28.85;14.85;;;;;;;-3.11;100.00;96403.50;4976542;28;20069;-68
2024/01/19 04:01:51;;;;;;;29.50;15.52;;;;;;;-2.97;100.00;96403.59;4982902;28;20050;-68
2024/01/19 04:04:16;;;;;;;31.05;16.45;;;;;;;-2.89;100.00;96401.06;4982964;28;20046;-69
2024/01/19 04:06:42;;;;;;;30.88;16.52;;;;;;;-2.83;100.00;96403.69;4983071;28;20039;-69
2024/01/19 04:09:08;;;;;;;34.17;16.50;;;;;;;-2.77;100.00;96407.91;4978217;28;20045;-68
2024/01/19 04:11:35;;;;;;;31.67;15.30;;;;;;;-2.64;100.00;96412.56;4981279;28;20121;-69
2024/01/19 04:14:00;;;;;;;33.28;15.90;;;;;;;-2.58;100.00;96408.72;4982497;28;20042;-69
2024/01/19 04:16:26;;;;;;;32.45;15.85;;;;;;;-2.49;100.00;96411.56;4977375;28;20050;-68
2024/01/19 04:18:51;;;;;;;28.05;15.73;;;;;;;-2.49;100.00;96414.22;4985644;28;20046;-67
2024/01/19 04:21:16;;;;;;;28.98;15.30;;;;;;;-2.56;100.00;96413.78;4991000;28;20053;-69
2024/01/19 04:23:44;;;;;;;30.05;15.77;;;;;;;-2.62;100.00;96423.00;4982472;28;20904;-68
2024/01/19 04:26:10;;;;;;;28.88;15.80;;;;;;;-2.49;100.00;96424.97;4971245;28;20042;-68
2024/01/19 04:28:35;;;;;;;34.95;14.80;;;;;;;-2.45;100.00;96425.19;4982909;28;20440;-69
2024/01/19 04:31:01;;;;;;;27.75;15.68;;;;;;;-2.46;100.00;96429.75;4983876;28;20176;-69
2024/01/19 04:33:26;;;;;;;30.08;15.68;;;;;;;-2.44;100.00;96432.94;4995011;23;20092;-73
2024/01/19 04:35:51;;;;;;;29.83;15.70;;;;;;;-2.41;100.00;96436.91;4976245;28;20493;-74
2024/01/19 04:38:17;;;;;;;33.67;16.55;;;;;;;-2.37;100.00;96444.09;4960442;28;20378;-74
2024/01/19 04:40:42;;;;;;;29.92;15.93;;;;;;;-2.34;100.00;96448.91;4960397;28;20625;-74
2024/01/19 04:43:07;;;;;;;30.50;15.10;;;;;;;-2.37;100.00;96446.78;4956716;28;20070;-73
2024/01/19 04:45:33;;;;;;;28.92;14.27;;;;;;;-2.37;100.00;96437.97;4967962;28;20047;-75
2024/01/19 04:47:58;;;;;;;27.58;14.38;;;;;;;-2.40;100.00;96444.69;4973387;28;20035;-74
2024/01/19 04:50:23;;;;;;;23.50;14.15;;;;;;;-2.41;100.00;96451.16;4928382;28;20100;-74
2024/01/19 04:52:49;;;;;;;28.45;14.18;;;;;;;-2.37;100.00;96454.84;4966603;28;20142;-72
2024/01/19 04:55:14;;;;;;;32.83;14.50;;;;;;;-2.42;100.00;96454.13;4961700;28;20067;-75
2024/01/19 04:57:40;;;;;;;27.73;14.30;;;;;;;-2.46;100.00;96461.16;4963707;28;20047;-73
2024/01/19 05:00:06;;;;;;;26.10;13.82;;;;;;;-2.57;100.00;96463.16;4954699;28;20043;-74
2024/01/19 05:02:32;;;;;;;28.15;14.65;;;;;;;-2.65;100.00;96466.47;4961992;28;20047;-74
2024/01/19 05:04:59;;;;;;;28.38;15.10;;;;;;;-2.79;100.00;96479.75;4970755;28;20073;-72
2024/01/19 05:07:26;;;;;;;28.77;15.25;;;;;;;-2.85;100.00;96472.88;4958632;28;20521;-72
2024/01/19 05:09:52;;;;;;;33.35;17.00;;;;;;;-3.25;100.00;96462.31;4952179;28;20130;-74
2024/01/19 05:12:17;;;;;;;33.83;17.50;;;;;;;-3.49;100.00;96465.75;4942588;28;20051;-74
2024/01/19 05:14:42;;;;;;;29.42;16.48;;;;;;;-3.71;100.00;96470.75;4944905;28;20051;-73
2024/01/19 05:17:08;;;;;;;33.38;17.17;;;;;;;-3.72;100.00;96469.16;4940236;28;20552;-74
2024/01/19 05:19:33;;;;;;;31.77;15.70;;;;;;;-3.52;100.00;96471.66;4944377;28;20103;-75
2024/01/19 05:21:58;;;;;;;28.45;15.25;;;;;;;-3.52;100.00;96476.22;4943777;28;20047;-73
2024/01/19 05:24:24;;;;;;;27.92;15.30;;;;;;;-3.52;100.00;96486.94;4921247;28;20537;-75
2024/01/19 05:26:49;;;;;;;26.88;15.25;;;;;;;-3.42;100.00;96491.38;4945659;28;20390;-75
2024/01/19 05:29:15;;;;;;;34.47;16.20;;;;;;;-3.50;100.00;96493.59;4930779;28;20138;-73
2024/01/19 05:31:40;;;;;;;30.35;15.57;;;;;;;-3.59;100.00;96500.63;4944277;28;20051;-75
2024/01/19 05:34:05;;;;;;;27.85;14.57;;;;;;;-3.84;100.00;96505.09;4939383;28;20043;-76
2024/01/19 05:36:31;;;;;;;29.77;15.15;;;;;;;-4.04;100.00;96508.72;4931565;28;20139;-74
2024/01/19 05:38:56;;;;;;;31.23;14.43;;;;;;;-4.01;100.00;96514.59;4949633;28;20154;-75
2024/01/19 05:41:22;;;;;;;28.45;15.68;;;;;;;-3.92;100.00;96527.09;4933085;28;21488;-74
2024/01/19 05:43:47;;;;;;;24.30;14.25;;;;;;;-3.92;100.00;96527.09;4929902;28;20055;-74
2024/01/19 05:46:14;;;;;;;26.35;13.57;;;;;;;-4.08;100.00;96529.06;4943424;28;20050;-74
2024/01/19 05:48:39;;;;;;;25.42;14.82;;;;;;;-4.06;100.00;96536.81;4942997;28;20076;-73
2024/01/19 05:51:14;;;;;;;23.95;13.18;;;;;;;-4.08;100.00;96547.00;4935867;28;20039;-73
2024/01/19 05:53:39;;;;;;;25.20;13.48;;;;;;;-4.26;100.00;96551.91;4925379;28;20047;-74
2024/01/19 05:56:05;;;;;;;29.40;13.65;;;;;;;-4.35;100.00;96550.09;4913482;28;20720;-75
2024/01/19 05:58:30;;;;;;;27.95;13.77;;;;;;;-4.47;100.00;96553.06;4941614;28;20566;-75
2024/01/19 06:00:55;;;;;;;29.50;15.20;;;;;;;-4.56;100.00;96555.50;4964369;28;20111;-75
2024/01/19 06:03:21;;;;;;;23.92;13.05;;;;;;;-4.43;100.00;96562.13;4940360;28;20058;-75
2024/01/19 06:05:46;;;;;;;21.85;13.27;;;;;;;-4.25;100.00;96563.38;4963273;28;20043;-74
2024/01/19 06:08:12;;;;;;;22.88;12.40;;;;;;;-4.07;100.00;96562.78;4968746;28;20129;-75
2024/01/19 06:10:38;;;;;;;23.48;12.32;;;;;;;-3.91;100.00;96568.03;4974078;28;20054;-76
2024/01/19 06:13:03;;;;;;;28.10;13.50;;;;;;;-3.84;100.00;96563.97;4972720;28;20047;-74
2024/01/19 06:15:29;;;;;;;21.27;11.82;;;;;;;-3.78;100.00;96575.47;4970349;28;20050;-75
2024/01/19 06:17:55;;;;;;;29.55;12.07;;;;;;;-3.75;100.00;96582.13;4950028;28;20517;-75
2024/01/19 06:20:20;;;;;;;21.17;10.20;;;;;;;-3.68;100.00;96586.09;4929022;28;20054;-75
2024/01/19 06:22:46;;;;;;;22.35;11.98;;;;;;;-3.58;100.00;96587.09;4944797;28;20071;-74
2024/01/19 06:25:11;;;;;;;26.42;14.15;;;;;;;-3.68;100.00;96596.78;4945268;28;20555;-74
2024/01/19 06:27:37;;;;;;;23.15;11.80;;;;;;;-3.68;100.00;96598.69;4950652;28;20039;-75
2024/01/19 06:30:04;;;;;;;17.83;10.13;;;;;;;-3.51;100.00;96607.16;4928520;28;20063;-75
2024/01/19 06:32:30;;;;;;;20.20;9.82;;;;;;;-3.52;100.00;96605.53;4955578;28;20066;-74
2024/01/19 06:34:56;;;;;;;14.43;8.43;;;;;;;-3.39;100.00;96616.69;4937559;29;20047;-76
2024/01/19 06:37:21;;;;;;;14.93;8.82;;;;;;;-3.20;100.00;96614.94;4945085;28;21326;-77
2024/01/19 06:39:46;;;;;;;14.77;9.02;;;;;;;-3.33;100.00;96619.06;4937400;28;20046;-73
2024/01/19 06:42:13;;;;;;;14.68;8.45;;;;;;;-3.30;100.00;96626.53;4943702;28;20047;-75
2024/01/19 06:44:44;;;;;;;16.85;8.88;;;;;;;-3.34;100.00;96625.50;4942551;28;20055;-76
2024/01/19 06:47:10;;;;;;;17.35;8.10;;;;;;;-3.35;100.00;96629.25;4962029;28;20071;-76
2024/01/19 06:49:38;;;;;;;18.27;9.23;;;;;;;-3.10;100.00;96632.81;4945242;28;20074;-76
2024/01/19 06:52:07;;;;;;;15.55;8.50;;;;;;;-3.11;100.00;96633.91;4959334;28;20089;-73
2024/01/19 06:54:32;;;;;;;18.75;8.50;;;;;;;-3.07;100.00;96638.41;4963568;28;20039;-75
2024/01/19 06:56:58;;;;;;;20.92;9.95;;;;;;;-3.08;100.00;96636.84;4940652;28;20057;-75
2024/01/19 06:59:25;;;;;;;21.10;9.30;;;;;;;-3.05;100.00;96637.34;4973728;28;20738;-75
2024/01/19 07:01:50;;;;;;;25.27;9.57;;;;;;;-3.08;100.00;96644.88;4976371;28;20051;-75
2024/01/19 07:04:16;;;;;;;16.15;8.50;;;;;;;-3.03;100.00;96653.94;4974391;28;20110;-74
2024/01/19 07:06:41;;;;;;;18.75;9.40;;;;;;;-2.98;100.00;96651.22;4977730;28;20082;-73
2024/01/19 07:09:08;;;;;;;20.35;9.18;;;;;;;-2.99;100.00;96652.28;4972403;28;20042;-75
2024/01/19 07:11:34;;;;;;;17.45;7.70;;;;;;;-2.95;100.00;96656.03;4982645;28;20081;-74
2024/01/19 07:14:00;;;;;;;15.45;8.55;;;;;;;-2.92;100.00;96669.66;4986582;28;20051;-74
2024/01/19 07:16:25;;;;;;;25.80;11.93;;;;;;;-2.84;100.00;96670.16;4995300;28;20041;-74
2024/01/19 07:18:51;;;;;;;32.15;14.05;;;;;;;-2.89;100.00;96674.44;4985721;28;20054;-75
2024/01/19 07:21:16;;;;;;;30.27;10.77;;;;;;;-2.82;100.00;96676.03;4979970;28;20068;-73
2024/01/19 07:23:42;;;;;;;19.77;9.82;;;;;;;-2.74;100.00;96676.22;4983115;28;20145;-75
2024/01/19 07:26:07;;;;;;;22.55;9.50;;;;;;;-2.74;100.00;96681.59;4979296;28;20053;-77
2024/01/19 07:28:33;;;;;;;20.75;10.38;;;;;;;-2.73;100.00;96687.75;4990119;28;20050;-78
2024/01/19 07:30:58;;;;;;;15.93;8.73;;;;;;;-2.73;100.00;96696.56;4990204;28;20050;-78
2024/01/19 07:33:24;;;;;;;17.88;8.48;;;;;;;-2.70;100.00;96697.91;4974595;28;20491;-77
2024/01/19 07:35:49;;;;;;;20.70;9.20;;;;;;;-2.80;100.00;96706.81;4972982;28;20047;-75
2024/01/19 07:38:15;;;;;;;19.75;8.65;;;;;;;-2.88;100.00;96707.44;4990147;28;20030;-75
2024/01/19 07:40:40;;;;;;;18.92;8.38;;;;;;;-2.83;100.00;96710.06;5008731;28;20046;-77
2024/01/19 07:43:06;;;;;;;17.25;8.23;;;;;;;-2.85;100.00;96722.94;4991832;28;20047;-75
2024/01/19 07:45:33;;;;;;;18.92;9.25;;;;;;;-2.75;100.00;96733.59;4994477;28;20117;-76
2024/01/19 07:47:59;;;;;;;18.70;9.85;;;;;;;-2.78;100.00;96739.50;4983514;28;20047;-76
2024/01/19 07:50:25;;;;;;;25.05;9.85;;;;;;;-2.63;100.00;96743.16;4981750;28;20057;-76
2024/01/19 07:52:51;;;;;;;13.35;8.35;;;;;;;-2.50;100.00;96751.38;4972798;28;20050;-76
2024/01/19 07:55:16;;;;;;;18.88;9.30;;;;;;;-2.36;100.00;96759.56;4972025;28;20034;-74
2024/01/19 07:57:41;;;;;;;19.63;9.00;;;;;;;-2.24;100.00;96761.06;4964980;28;20090;-74
2024/01/19 08:00:08;;;;;;;16.67;8.15;;;;;;;-2.20;100.00;96762.09;4958044;28;20055;-71
2024/01/19 08:02:34;;;;;;;13.90;7.85;;;;;;;-2.24;100.00;96771.81;4967619;28;20504;-74
2024/01/19 08:04:59;;;;;;;15.95;7.82;;;;;;;-2.29;100.00;96775.31;4973366;28;20123;-73
2024/01/19 08:07:26;;;;;;;13.13;7.28;;;;;;;-2.13;100.00;96789.41;4977434;28;20085;-73
2024/01/19 08:09:52;;;;;;;16.52;7.43;;;;;;;-1.95;100.00;96780.63;4966823;28;20492;-72
2024/01/19 08:12:17;;;;;;;13.70;7.10;;;;;;;-2.08;100.00;96781.31;4981997;28;20047;-73
2024/01/19 08:14:42;;;;;;;12.63;7.25;;;;;;;-1.96;100.00;96781.75;4987466;28;20402;-74
2024/01/19 08:17:08;;;;;;;15.23;7.75;;;;;;;-2.06;100.00;96784.50;4973128;28;20058;-71
2024/01/19 08:19:33;;;;;;;14.43;7.72;;;;;;;-1.79;100.00;96793.91;4967328;28;20047;-74
2024/01/19 08:21:59;;;;;;;22.83;7.78;;;;;;;-1.70;100.00;96802.16;4965274;28;20046;-73
2024/01/19 08:24:24;;;;;;;15.15;7.13;;;;;;;-1.71;100.00;96808.59;4973819;28;20122;-72
2024/01/19 08:26:50;;;;;;;14.57;7.13;;;;;;;-1.47;100.00;96816.69;4965147;28;20042;-73
2024/01/19 08:29:15;;;;;;;15.70;6.85;;;;;;;-1.42;100.00;96813.94;4957671;28;20062;-73
2024/01/19 08:31:43;;;;;;;14.73;7.47;;;;;;;-1.27;100.00;96815.66;4965768;28;20059;-73
2024/01/19 08:34:11;;;;;;;13.48;6.82;;;;;;;-1.26;100.00;96823.44;4968128;28;20066;-73
2024/01/19 08:36:41;;;;;;;12.70;8.25;;;;;;;-1.20;100.00;96826.84;4973278;28;20686;-72
2024/01/19 08:39:07;;;;;;;16.65;8.60;;;;;;;-1.74;100.00;96829.56;4953322;28;20577;-70
2024/01/19 08:41:42;;;;;;;13.68;7.30;;;;;;;-1.48;100.00;96841.94;4979469;28;20072;-72
2024/01/19 08:44:08;;;;;;;16.17;9.05;;;;;;;-1.28;100.00;96854.34;4956789;28;20058;-71
2024/01/19 08:46:34;;;;;;;18.92;10.00;;;;;;;-1.12;100.00;96860.34;4962588;28;20047;-74
2024/01/19 08:49:00;;;;;;;20.77;9.75;;;;;;;-1.00;100.00;96869.59;4960580;28;20517;-73
2024/01/19 08:51:28;;;;;;;14.20;7.78;;;;;;;-0.91;100.00;96871.66;4960864;28;20050;-73
2024/01/19 08:53:54;;;;;;;16.05;8.68;;;;;;;-1.02;100.00;96873.69;4963245;28;20078;-73
2024/01/19 08:56:22;;;;;;;13.32;8.13;;;;;;;-1.13;100.00;96874.88;4974583;28;20074;-73
2024/01/19 08:58:48;;;;;;;15.82;8.55;;;;;;;-0.94;100.00;96883.00;4956176;28;20063;-74
2024/01/19 09:01:23;;;;;;;16.25;8.02;;;;;;;-0.68;100.00;96878.91;4942170;28;20112;-73
2024/01/19 09:03:48;;;;;;;13.60;7.40;;;;;;;-0.72;100.00;96882.44;4964249;28;20062;-73
2024/01/19 09:06:13;;;;;;;16.30;7.45;;;;;;;-0.12;100.00;96884.56;4960909;28;20047;-72
2024/01/19 09:08:42;;;;;;;18.17;9.38;;;;;;;0.30;100.00;96890.91;4963417;28;20477;-71
2024/01/19 09:11:12;;;;;;;19.77;9.18;;;;;;;0.61;100.00;96895.75;4960733;28;20051;-72
2024/01/19 09:13:38;;;;;;;20.58;9.68;;;;;;;0.83;100.00;96900.47;4950956;28;20042;-72
2024/01/19 09:16:10;;;;;;;17.08;8.73;;;;;;;1.07;100.00;96908.41;4974521;28;20050;-72
2024/01/19 09:18:37;;;;;;;14.25;7.40;;;;;;;1.61;100.00;96903.25;4978529;28;20081;-72
2024/01/19 09:21:03;;;;;;;13.27;7.50;;;;;;;2.05;100.00;96913.31;4979589;28;20046;-71
2024/01/19 09:23:29;;;;;;;18.83;9.45;;;;;;;2.49;100.00;96914.41;4981609;28;20038;-72
2024/01/19 09:25:54;;;;;;;17.70;9.65;;;;;;;3.15;100.00;96927.34;4983433;28;20068;-71
2024/01/19 09:28:20;;;;;;;16.88;8.65;;;;;;;3.78;100.00;96922.56;4976744;28;20450;-72
2024/01/19 09:30:47;;;;;;;18.17;8.95;;;;;;;3.34;100.00;96921.66;4985410;28;20764;-72
2024/01/19 09:33:14;;;;;;;17.88;8.43;;;;;;;3.13;100.00;96931.44;4980158;28;20051;-73
2024/01/19 09:35:40;;;;;;;19.35;9.15;;;;;;;2.86;100.00;96934.03;4967983;28;20043;-73
2024/01/19 09:38:05;;;;;;;17.02;8.68;;;;;;;1.38;100.00;96937.47;4976832;28;20061;-72
2024/01/19 09:40:32;;;;;;;19.30;9.95;;;;;;;0.43;100.00;96929.75;4971191;28;20051;-74
2024/01/19 09:42:57;;;;;;;19.52;9.25;;;;;;;0.55;100.00;96933.56;4982668;28;20047;-73
2024/01/19 09:45:26;;;;;;;19.15;10.30;;;;;;;-0.48;100.00;96936.22;4997108;28;20054;-73
2024/01/19 09:48:16;;;;;;;20.00;9.35;;;;;;;0.24;100.00;96945.97;4962472;28;20184;-71
2024/01/19 09:50:46;;;;;;;18.90;9.43;;;;;;;0.09;100.00;96938.91;4984686;28;20482;-72
2024/01/19 09:53:23;;;;;;;17.95;8.65;;;;;;;0.65;100.00;96954.19;4977969;28;20431;-72
2024/01/19 09:55:48;;;;;;;33.03;13.90;;;;;;;1.26;100.00;96960.38;4984440;28;20512;-72
2024/01/19 09:58:16;;;;;;;19.50;8.68;;;;;;;1.76;100.00;96962.31;4979939;28;20047;-72
2024/01/19 10:00:41;;;;;;;18.88;8.80;;;;;;;1.73;100.00;96968.34;4979495;28;20042;-73
2024/01/19 10:03:08;;;;;;;14.93;8.60;;;;;;;1.87;100.00;96973.69;4977945;28;20391;-73
2024/01/19 10:05:38;;;;;;;18.70;9.65;;;;;;;1.96;100.00;96971.88;4971657;28;20140;-74
2024/01/19 10:08:05;;;;;;;13.73;7.85;;;;;;;2.02;100.00;96983.38;4959695;28;20069;-72
2024/01/19 10:10:30;;;;;;;18.52;8.13;;;;;;;2.21;100.00;96981.31;4981891;28;20141;-71
2024/01/19 10:12:56;;;;;;;12.52;7.88;;;;;;;2.34;100.00;96995.09;4954989;28;20111;-72
2024/01/19 10:15:21;;;;;;;17.10;7.82;;;;;;;2.43;100.00;97001.34;4962952;28;20057;-71
2024/01/19 10:17:47;;;;;;;14.38;8.25;;;;;;;2.10;100.00;97001.56;4966945;28;20058;-74
2024/01/19 10:20:16;;;;;;;18.05;9.23;;;;;;;2.05;100.00;97007.88;4964614;28;20046;-75
2024/01/19 10:22:42;;;;;;;15.32;8.90;;;;;;;2.27;100.00;97015.22;4978354;28;20413;-74
2024/01/19 10:25:12;;;;;;;15.85;7.70;;;;;;;2.24;100.00;97010.44;4985311;28;20046;-74
2024/01/19 10:27:44;;;;;;;10.80;7.10;;;;;;;1.98;100.00;97014.78;4945538;28;20054;-74
2024/01/19 10:30:24;;;;;;;19.27;9.52;;;;;;;1.72;100.00;97010.72;4943184;28;20143;-72
2024/01/19 10:32:51;;;;;;;15.65;9.52;;;;;;;1.69;100.00;97011.34;4948586;28;20070;-72
2024/01/19 10:35:20;;;;;;;17.60;9.43;;;;;;;1.86;100.00;97005.31;4941321;28;20043;-73
2024/01/19 10:37:47;;;;;;;20.23;9.55;;;;;;;1.84;100.00;97015.63;4946809;28;20047;-73
2024/01/19 10:40:21;;;;;;;12.98;7.43;;;;;;;1.85;100.00;97016.41;4938864;28;20801;-72
2024/01/19 10:42:48;;;;;;;16.20;7.28;;;;;;;2.46;100.00;97020.47;4946337;28;20045;-73
2024/01/19 10:45:25;;;;;;;14.30;8.75;;;;;;;3.06;100.00;97021.19;4940339;28;20075;-72
2024/01/19 10:47:54;;;;;;;9.38;5.82;;;;;;;3.45;96.65;97015.00;4934461;28;20043;-71
2024/01/19 10:50:21;;;;;;;12.15;5.80;;;;;;;3.59;90.30;97025.75;4953382;28;20052;-71
2024/01/19 10:52:49;;;;;;;8.85;5.18;;;;;;;3.01;91.19;97024.06;4973941;28;20039;-72
2024/01/19 10:55:32;;;;;;;8.77;4.90;;;;;;;3.62;83.57;97027.84;4976073;28;20093;-70
2024/01/19 10:58:04;;;;;;;8.77;4.57;;;;;;;3.47;84.32;97030.16;4982177;28;20055;-73
2024/01/19 11:00:29;;;;;;;9.52;4.65;;;;;;;3.21;86.75;97031.63;4980193;28;20150;-71
2024/01/19 11:03:02;;;;;;;9.82;4.32;;;;;;;3.10;88.42;97024.06;4975959;28;20468;-72
2024/01/19 11:05:28;;;;;;;8.23;4.80;;;;;;;3.08;88.49;97026.28;4978917;28;20062;-73
2024/01/19 11:07:56;;;;;;;14.75;5.40;;;;;;;3.47;84.11;97022.03;4959361;28;20039;-72
2024/01/19 11:10:23;;;;;;;7.38;4.00;;;;;;;3.60;67.04;97030.06;4971207;28;20050;-72